Terminal Aerodrome Forecast
Issued by NWS

Home | Current Version | Previous Version | Text Only | Print | Product List | Glossary On
Versions: 1 2 3 4 5 6 7 8 9 10 11 12 13 14 15 16 17
000
FTUS43 KJKL 042333
TAFSME
TAF
KSME 042333Z 0500/0524 32009KT P6SM VCSH BKN050
     FM050800 VRB03KT 3SM BR BKN070
     FM051300 30006KT P6SM VCSH OVC015
     FM051900 32009KT P6SM VCSH OVC035
     FM052300 32009KT P6SM VCSH OVC025=

USA.gov is the U.S. government's official web portal to all federal, state and local government web resources and services.